Portada
METAR-TAF:

METAR-TAF

Aeroports :

Lihue, Hawaii, Estats Units d'Amèrica

latitud: 21-59-02N, longitud: 159-20-28W, altitud: 45 m

Observació

L'informe es va fer fa 22 minuts, a les 10:53 UTC
Vent 6 kt del Oest/Nord-Oest
Temperatura 18°C
Humitat 88%
Pressió 1020 hPa
Visibilitat: 16.1 km
Escasses núvols a una alçada de 3500 ft

METAR: PHLI 251053Z AUTO 29006KT 10SM FEW035 18/16 A3013 RMK AO2 SLP202 T01780156 TSNO

Hora: 01:15 (11:15 UTC)

Pronòstic

L'informe es va fer fa 5 hores i 55 minuts, a les 05:20 UTC
Pronòstic vàlid del 25 a les 06 UTC al 26 a les 06 UTC
Vent 11 kt del Nord/Nord-Est
Visibilitat: 10 km
Núvols disperses a una alçada de 3000 ft

TAF: PHLI 250520Z 2506/2606 03011KT P6SM SCT030

Observacions i pronòstics meteorològics de més de 4000 aeroports (METAR i TAF).

Les estacions disponibles són els punts grocs i vermells al mapa.

Posi el ratolí al punt desitjat per veure el nom de l'estació.

Feu clic per veure les observacions i els pronòstics meteorològics.

Per canviar el mapa: feu clic els botons verds amb una creu de color negre per apropar; al botó verd amb un guió per allunyar la imatge; o en les fletxes verdes per a mapes adjacents.


METAR-TAF: